Zeeland, Netherlands
Current Conditions -  °F | °C
As of 1:25 AM on Tuesday 25 Nov 2014 (Local Time) from EHVK Reporting Station
Clear Clear  
Wind Chill: 32°   Ceiling: Unl
Heat Index: 32°   Visibility: NA
Dew Point: 32°   Wind: 1mph
Humidity: 100%   Direction: 220°SW
Pressure: 30.33"   Gusts: NA
Location:  51.7°N, 5.68°E
Report Text: EHVK 250025Z AUTO 22001KT //// R24R/P3000 // NCD 00/00 Q1027 RE//
Loading
Personal Weather Stations






























Interactive Weather Map New forecast layout! Learn more

10-Day Weather Forecast

Advertisements
Track Severe Weather on mobile